Aeroporto :
LOGIN :

Iscrizione | Disclaimer

   EN    FR    IT 

 










Sommario :    VFR   VFR Marginale   IFR   IFR Intensivo   IFR Molto Intensivo
Visibilità : 
Base nubi : 
>= 8 km
>= 3000ft
5 / 8 km
1000 / 3000 ft
1500m / 5 km
500 / 1000 ft
800 / 1500m
200 / 500 ft
< 800m
< 200 ft
Simboli :   Temporali  Nebbia  Neve Forte  Precipitazioni Forti  Vento > 20 kt
SIGMETs :   Varie  Temporali  Ghiacco  Turbolenza  Onda orograficha  Ceneri Vulcaniche






- Altitudine del aeroporto : 1830 ft


EBLB - Butgenbach Elsenborn

ULTIMO METAR :
  • 210220Z AUTO 34006KT 3100 BR OVC002/// M02/M02 Q1031 AMB

METARs OBSOLETI :
  • 210155Z AUTO 34007KT 5000 -FZDZ OVC003/// M02/M02 Q1031 YLO
  • 210145Z AUTO 34008KT 2400 -SN OVC003/// M02/M02 Q1031 YLO
  • 210125Z AUTO 33007KT 5000 OVC002/// M02/M02 Q1031 AMB
  • 210055Z AUTO 34008KT 3600 BR OVC002/// M02/M02 Q1031 AMB
  • 210025Z AUTO 33008KT 2300 BR OVC002/// M02/M02 Q1030 AMB
  • 210020Z AUTO 34009KT 1800 BR OVC002/// M02/M02 Q1030 AMB
  • 202355Z AUTO 33009KT 5000 OVC003/// M02/M02 Q1030 YLO
  • 202325Z AUTO 34007KT 9999 OVC006/// M02/M03 Q1030 YLO

Previsioni scadute.



MetMap, La meteo Aeronautica in un colpo d'occhio ! - Copyright ORBIFLY Dicembre 2007 - Disclaimer

ORBIFLY MET'MAP TEAM :

Programmazione e sviluppo : Alexandra Zaïnal
Concezione : Baudouin d'Aumeries
Aiuto per la programmazione : Marc-Olivier Méhu
Supporto tecnico e logistico : Manuel Goepfert
Aiuto per la traduzione : Arnaldo La Scala

Contatto : metmap@orbifly.com




FONTI E CREDITI :

   NOAA